Time;durP1;ratioP1;P1;durP2;ratioP2;P2;SDS_P1;SDS_P2;PMS_P1;PMS_P2;Temp;Humidity;BMP_temperature;BMP_pressure;BME280_temperature;BME280_humidity;BME280_pressure;Samples;Min_cycle;Max_cycle;Signal;HPM_P1;HPM_P2
2021/05/16 00:00:23;;;;;;;2.25;1.60;;;11.30;99.90;;;;;;5066743;28;20438;-53
2021/05/16 00:02:50;;;;;;;1.92;1.42;;;11.40;99.90;;;;;;5065116;28;20174;-53
2021/05/16 00:05:18;;;;;;;1.75;1.50;;;11.10;99.90;;;;;;5066644;28;20605;-52
2021/05/16 00:07:44;;;;;;;2.00;1.48;;;11.40;99.90;;;;;;5059954;28;20173;-52
2021/05/16 00:10:11;;;;;;;1.97;1.30;;;11.10;99.90;;;;;;5067142;28;20676;-52
2021/05/16 00:12:37;;;;;;;1.73;1.27;;;11.50;99.90;;;;;;5066098;28;20272;-52
2021/05/16 00:15:08;;;;;;;2.30;1.23;;;11.10;99.90;;;;;;5064437;28;20211;-52
2021/05/16 00:17:34;;;;;;;4.72;1.50;;;11.40;99.90;;;;;;5065805;28;20185;-53
2021/05/16 00:20:00;;;;;;;2.15;2.05;;;11.40;99.90;;;;;;5063904;28;20209;-52
2021/05/16 00:22:25;;;;;;;2.63;1.43;;;11.30;99.90;;;;;;5074365;28;20176;-52
2021/05/16 00:24:51;;;;;;;2.60;1.67;;;11.60;99.90;;;;;;5064542;28;20566;-51
2021/05/16 00:27:16;;;;;;;1.30;1.20;;;11.30;99.90;;;;;;5069348;28;20174;-51
2021/05/16 00:29:42;;;;;;;1.90;1.07;;;11.30;99.90;;;;;;5062352;28;20181;-52
2021/05/16 00:32:08;;;;;;;1.23;1.00;;;11.10;99.90;;;;;;5064148;28;20206;-53
2021/05/16 00:34:34;;;;;;;1.53;1.00;;;11.30;99.90;;;;;;5067289;28;20754;-53
2021/05/16 00:37:00;;;;;;;1.93;1.00;;;11.30;99.90;;;;;;5064861;28;20227;-52
2021/05/16 00:39:25;;;;;;;2.03;0.98;;;11.70;99.90;;;;;;5066533;28;20482;-52
2021/05/16 00:41:52;;;;;;;2.20;1.23;;;11.00;99.90;;;;;;5067259;28;20173;-52
2021/05/16 00:44:19;;;;;;;1.75;1.10;;;11.50;99.90;;;;;;5067885;28;20204;-51
2021/05/16 00:46:45;;;;;;;1.83;1.35;;;11.50;99.90;;;;;;5060318;28;20288;-52
2021/05/16 00:49:11;;;;;;;2.38;1.42;;;11.30;99.90;;;;;;5065754;28;20190;-53
2021/05/16 00:51:37;;;;;;;2.40;1.40;;;11.40;99.90;;;;;;5064892;28;20185;-52
2021/05/16 00:54:06;;;;;;;3.63;1.50;;;11.70;99.90;;;;;;5066911;28;20438;-52
2021/05/16 00:56:32;;;;;;;1.60;1.10;;;11.60;99.90;;;;;;5061330;28;20204;-52
2021/05/16 00:58:59;;;;;;;4.00;1.30;;;11.60;99.90;;;;;;5065480;28;20667;-51
2021/05/16 01:01:26;;;;;;;1.75;1.10;;;11.60;99.90;;;;;;5065054;28;20284;-52
2021/05/16 01:03:52;;;;;;;2.05;1.25;;;11.80;99.90;;;;;;5066140;28;20232;-51
2021/05/16 01:06:17;;;;;;;1.77;1.42;;;11.80;99.90;;;;;;5062542;28;20319;-51
2021/05/16 01:08:48;;;;;;;1.67;1.57;;;11.80;99.90;;;;;;5065822;28;20185;-52
2021/05/16 01:11:15;;;;;;;3.28;0.95;;;11.60;99.90;;;;;;5062742;28;20184;-52
2021/05/16 01:13:42;;;;;;;1.70;0.85;;;12.00;99.90;;;;;;5067993;28;20205;-52
2021/05/16 01:16:08;;;;;;;1.80;1.13;;;11.60;99.90;;;;;;5065622;28;20190;-52
2021/05/16 01:18:33;;;;;;;2.00;1.00;;;12.00;99.90;;;;;;5068328;28;20213;-52
2021/05/16 01:20:59;;;;;;;1.20;1.10;;;11.70;99.90;;;;;;5069390;28;20209;-52
2021/05/16 01:23:28;;;;;;;4.10;1.60;;;11.60;99.90;;;;;;5069439;28;20260;-52
2021/05/16 01:25:53;;;;;;;2.33;0.93;;;11.70;99.90;;;;;;5071331;28;20173;-52
2021/05/16 01:28:20;;;;;;;1.43;0.90;;;11.80;99.90;;;;;;5070398;28;20249;-52
2021/05/16 01:30:49;;;;;;;3.92;1.20;;;11.60;99.90;;;;;;5071122;28;20239;-53
2021/05/16 01:33:16;;;;;;;2.80;1.30;;;11.60;99.90;;;;;;5062582;28;20204;-53
2021/05/16 01:35:42;;;;;;;1.40;1.00;;;11.60;99.90;;;;;;5069616;28;20197;-52
2021/05/16 01:38:08;;;;;;;1.75;1.20;;;11.80;99.90;;;;;;5067075;28;20591;-52
2021/05/16 01:40:35;;;;;;;2.37;1.10;;;11.60;99.90;;;;;;5066708;28;20282;-51
2021/05/16 01:43:01;;;;;;;1.73;1.15;;;11.80;99.90;;;;;;5067768;28;20447;-52
2021/05/16 01:45:28;;;;;;;2.57;1.00;;;11.50;99.90;;;;;;5066222;28;20190;-51
2021/05/16 01:47:56;;;;;;;1.63;1.10;;;11.70;99.90;;;;;;5066569;28;20179;-53
2021/05/16 01:50:27;;;;;;;2.13;1.15;;;11.70;99.90;;;;;;5068676;28;20186;-52
2021/05/16 01:52:56;;;;;;;1.95;1.00;;;11.40;99.90;;;;;;5070477;28;20685;-52
2021/05/16 01:55:22;;;;;;;2.53;1.38;;;11.60;99.90;;;;;;5071454;28;20193;-52
2021/05/16 01:57:49;;;;;;;2.80;1.33;;;11.70;99.90;;;;;;5069892;28;20187;-52
2021/05/16 02:00:26;;;;;;;2.67;1.25;;;11.50;99.90;;;;;;5070128;28;20523;-52
2021/05/16 02:02:53;;;;;;;1.27;1.15;;;11.20;99.90;;;;;;5070193;28;20654;-52
2021/05/16 02:05:19;;;;;;;2.40;1.00;;;11.40;99.90;;;;;;5065261;28;20674;-53
2021/05/16 02:07:46;;;;;;;1.50;1.27;;;11.50;99.90;;;;;;5070015;28;20186;-51
2021/05/16 02:10:12;;;;;;;2.63;1.20;;;11.20;99.90;;;;;;5069939;28;20455;-52
2021/05/16 02:12:38;;;;;;;2.07;1.30;;;11.30;99.90;;;;;;5069281;28;20655;-52
2021/05/16 02:15:04;;;;;;;2.77;1.57;;;11.60;99.90;;;;;;5070995;28;20300;-51
2021/05/16 02:17:30;;;;;;;3.42;1.25;;;11.50;99.90;;;;;;5064058;28;20317;-51
2021/05/16 02:19:57;;;;;;;1.70;1.10;;;11.40;99.90;;;;;;5068989;28;20743;-52
2021/05/16 02:22:22;;;;;;;2.95;1.20;;;11.50;99.90;;;;;;5070807;28;20183;-51
2021/05/16 02:24:48;;;;;;;3.73;1.20;;;11.20;99.90;;;;;;5068565;28;20559;-51
2021/05/16 02:27:16;;;;;;;2.67;1.50;;;11.50;99.90;;;;;;5063697;28;20477;-51
2021/05/16 02:29:42;;;;;;;1.73;1.60;;;11.50;99.90;;;;;;5057957;28;20180;-53
2021/05/16 02:32:08;;;;;;;1.97;1.80;;;11.30;99.90;;;;;;5060220;28;20344;-52
2021/05/16 02:34:34;;;;;;;3.00;1.45;;;11.20;99.90;;;;;;5060321;28;20198;-52
2021/05/16 02:37:01;;;;;;;2.75;1.40;;;11.50;99.90;;;;;;5073308;28;20182;-52
2021/05/16 02:39:27;;;;;;;3.15;1.40;;;11.10;99.90;;;;;;5069318;28;20278;-52
2021/05/16 02:41:52;;;;;;;3.00;1.63;;;11.30;99.90;;;;;;5068026;28;20232;-50
2021/05/16 02:44:19;;;;;;;2.70;1.40;;;11.30;99.90;;;;;;5068369;28;20210;-50
2021/05/16 02:46:46;;;;;;;1.90;1.38;;;11.40;99.90;;;;;;5064928;28;20557;-50
2021/05/16 02:49:12;;;;;;;3.47;1.25;;;11.10;99.90;;;;;;5068494;28;20186;-51
2021/05/16 02:51:37;;;;;;;6.30;1.40;;;11.20;99.90;;;;;;5068798;28;20193;-52
2021/05/16 02:54:04;;;;;;;1.60;1.50;;;11.50;99.90;;;;;;5068591;28;20210;-52
2021/05/16 02:56:30;;;;;;;1.48;1.38;;;11.30;99.90;;;;;;5069875;28;20269;-51
2021/05/16 02:58:55;;;;;;;1.40;1.30;;;11.20;99.90;;;;;;5070129;28;20354;-52
2021/05/16 03:01:21;;;;;;;1.87;1.40;;;11.40;99.90;;;;;;5067907;28;20415;-51
2021/05/16 03:03:47;;;;;;;2.00;1.67;;;11.40;99.90;;;;;;5069389;28;20292;-51
2021/05/16 03:06:13;;;;;;;4.60;2.23;;;11.30;99.90;;;;;;5065355;28;20230;-51
2021/05/16 03:08:39;;;;;;;2.50;1.30;;;11.50;99.90;;;;;;5067612;28;20438;-50
2021/05/16 03:11:05;;;;;;;4.95;1.63;;;11.40;99.90;;;;;;5068809;28;21842;-51
2021/05/16 03:13:31;;;;;;;3.00;1.50;;;11.30;99.90;;;;;;5067890;28;20202;-52
2021/05/16 03:15:57;;;;;;;2.30;1.80;;;11.50;99.90;;;;;;5066503;28;20550;-52
2021/05/16 03:18:23;;;;;;;3.60;1.40;;;11.60;99.90;;;;;;5058925;28;20943;-52
2021/05/16 03:20:49;;;;;;;4.47;1.90;;;11.40;99.90;;;;;;5068784;28;20170;-52
2021/05/16 03:23:14;;;;;;;2.67;1.60;;;11.40;99.90;;;;;;5070078;28;20489;-52
2021/05/16 03:25:40;;;;;;;2.50;1.53;;;11.30;99.90;;;;;;5067287;28;20651;-52
2021/05/16 03:28:06;;;;;;;2.30;1.60;;;11.40;99.90;;;;;;5067350;28;20280;-51
2021/05/16 03:30:32;;;;;;;3.42;1.65;;;11.70;99.90;;;;;;5068356;28;20177;-52
2021/05/16 03:32:58;;;;;;;1.58;1.40;;;11.50;99.90;;;;;;5065161;28;20362;-52
2021/05/16 03:35:24;;;;;;;2.65;1.25;;;11.70;99.90;;;;;;5065644;28;20545;-52
2021/05/16 03:37:50;;;;;;;1.87;1.37;;;11.70;99.90;;;;;;5064982;28;20189;-52
2021/05/16 03:40:16;;;;;;;2.00;1.27;;;11.50;99.90;;;;;;5069250;28;20206;-51
2021/05/16 03:42:41;;;;;;;2.08;1.40;;;11.70;99.90;;;;;;5066175;28;20644;-52
2021/05/16 03:45:09;;;;;;;1.90;1.60;;;11.80;99.90;;;;;;5072319;28;20207;-52
2021/05/16 03:47:36;;;;;;;1.35;1.10;;;11.80;99.90;;;;;;5067267;28;20189;-52
2021/05/16 03:50:03;;;;;;;2.35;1.52;;;11.80;99.90;;;;;;5068184;28;20177;-52
2021/05/16 03:52:30;;;;;;;2.00;1.30;;;11.90;99.90;;;;;;5067437;28;20670;-52
2021/05/16 03:54:55;;;;;;;2.85;1.48;;;11.60;99.90;;;;;;5067118;28;20206;-52
2021/05/16 03:57:22;;;;;;;5.30;1.53;;;11.70;99.90;;;;;;5070725;28;20677;-51
2021/05/16 03:59:48;;;;;;;1.88;1.30;;;11.80;99.90;;;;;;5067968;28;20221;-51
2021/05/16 04:02:15;;;;;;;1.10;0.98;;;11.70;99.90;;;;;;5067618;28;20185;-51
2021/05/16 04:04:40;;;;;;;3.20;2.90;;;11.70;99.90;;;;;;5065370;28;20206;-52
2021/05/16 04:07:06;;;;;;;2.10;1.20;;;11.90;99.90;;;;;;5065420;28;20678;-52
2021/05/16 04:09:32;;;;;;;2.53;1.10;;;11.90;99.90;;;;;;5066300;28;20174;-52
2021/05/16 04:11:57;;;;;;;1.60;1.17;;;11.50;99.90;;;;;;5067485;28;20186;-52
2021/05/16 04:14:24;;;;;;;1.57;1.10;;;11.90;99.90;;;;;;5066846;28;20205;-52
2021/05/16 04:16:50;;;;;;;1.70;1.27;;;11.80;99.90;;;;;;5064529;28;20919;-51
2021/05/16 04:19:16;;;;;;;1.57;1.47;;;11.60;99.90;;;;;;5066916;28;20202;-51
2021/05/16 04:21:42;;;;;;;1.85;1.20;;;11.60;99.90;;;;;;5065636;28;20490;-52
2021/05/16 04:24:08;;;;;;;1.23;1.13;;;11.60;99.90;;;;;;5065479;28;20659;-52
2021/05/16 04:26:34;;;;;;;1.60;1.00;;;11.50;99.90;;;;;;5068609;28;20429;-51
2021/05/16 04:28:59;;;;;;;1.60;1.33;;;11.90;99.90;;;;;;5067623;28;20659;-52
2021/05/16 04:31:25;;;;;;;1.20;1.10;;;11.50;99.90;;;;;;5065804;28;20201;-51
2021/05/16 04:33:50;;;;;;;1.80;1.27;;;11.70;99.90;;;;;;5066759;28;20232;-51
2021/05/16 04:36:16;;;;;;;2.03;1.00;;;11.70;99.90;;;;;;5069697;28;20194;-51
2021/05/16 04:38:44;;;;;;;1.70;1.00;;;11.60;99.90;;;;;;5069014;28;20263;-51
2021/05/16 04:41:10;;;;;;;1.48;1.10;;;11.60;99.90;;;;;;5067676;28;20201;-52
2021/05/16 04:43:36;;;;;;;1.57;1.23;;;11.60;99.90;;;;;;5067977;28;20206;-51
2021/05/16 04:46:01;;;;;;;4.00;1.20;;;11.60;99.90;;;;;;5068128;28;20191;-51
2021/05/16 04:48:27;;;;;;;2.30;0.90;;;11.60;99.90;;;;;;5066806;28;20555;-50
2021/05/16 04:50:52;;;;;;;1.93;1.20;;;11.30;99.90;;;;;;5067431;28;20243;-51
2021/05/16 04:53:18;;;;;;;1.93;1.00;;;11.40;99.90;;;;;;5067751;28;20217;-51
2021/05/16 04:55:44;;;;;;;1.20;1.10;;;11.70;99.90;;;;;;5067239;28;20591;-52
2021/05/16 04:58:09;;;;;;;1.47;1.00;;;11.70;99.90;;;;;;5066172;28;20177;-51
2021/05/16 05:00:35;;;;;;;1.53;1.10;;;11.70;99.90;;;;;;5066697;28;20184;-50
2021/05/16 05:03:01;;;;;;;2.73;1.33;;;11.70;99.90;;;;;;5065581;28;20170;-52
2021/05/16 05:05:28;;;;;;;1.03;0.93;;;11.70;99.90;;;;;;5064998;28;20269;-51
2021/05/16 05:07:54;;;;;;;1.00;0.90;;;11.80;99.90;;;;;;5065342;28;20231;-51
2021/05/16 05:10:19;;;;;;;2.05;1.70;;;11.90;99.90;;;;;;5070147;28;20273;-50
2021/05/16 05:12:45;;;;;;;1.20;1.10;;;11.70;99.90;;;;;;5068533;28;20279;-51
2021/05/16 05:15:11;;;;;;;1.40;0.80;;;11.90;99.90;;;;;;5066842;28;20224;-51
2021/05/16 05:17:40;;;;;;;2.38;1.00;;;12.00;99.90;;;;;;5066772;28;20554;-52
2021/05/16 05:20:08;;;;;;;1.30;1.20;;;12.10;99.90;;;;;;5060801;28;20536;-50
2021/05/16 05:22:33;;;;;;;1.27;0.90;;;12.20;99.90;;;;;;5081250;28;20198;-52
2021/05/16 05:24:59;;;;;;;1.10;1.00;;;12.00;99.90;;;;;;5062300;28;20202;-51
2021/05/16 05:27:24;;;;;;;0.83;0.83;;;12.20;99.90;;;;;;5060327;28;20220;-50
2021/05/16 05:29:50;;;;;;;1.30;1.17;;;12.30;99.90;;;;;;5060735;28;20197;-51
2021/05/16 05:32:16;;;;;;;2.00;1.10;;;12.10;99.90;;;;;;5055633;28;20644;-53
2021/05/16 05:34:41;;;;;;;1.70;0.80;;;12.40;99.90;;;;;;5056316;28;20208;-52
2021/05/16 05:37:07;;;;;;;1.03;0.80;;;12.40;99.90;;;;;;5060001;28;20195;-53
2021/05/16 05:39:33;;;;;;;2.60;1.00;;;12.20;99.90;;;;;;5059541;28;20223;-52
2021/05/16 05:41:59;;;;;;;1.87;1.00;;;12.20;99.90;;;;;;5058173;28;20174;-52
2021/05/16 05:44:24;;;;;;;2.70;1.13;;;12.50;99.90;;;;;;5061324;28;20224;-52
2021/05/16 05:46:50;;;;;;;2.90;1.03;;;12.20;99.90;;;;;;5059727;28;20547;-52
2021/05/16 05:49:16;;;;;;;2.30;1.13;;;12.00;99.90;;;;;;5059121;28;20678;-53
2021/05/16 05:51:41;;;;;;;1.33;1.00;;;12.00;99.90;;;;;;5059064;28;20190;-53
2021/05/16 05:54:07;;;;;;;1.37;1.03;;;12.00;99.90;;;;;;5052162;28;20218;-55
2021/05/16 05:56:35;;;;;;;1.30;1.20;;;12.00;99.90;;;;;;5061790;28;20283;-55
2021/05/16 05:59:00;;;;;;;2.28;1.15;;;11.90;99.90;;;;;;5061088;28;20213;-51
2021/05/16 06:01:26;;;;;;;0.87;0.87;;;12.20;99.90;;;;;;5059179;28;20182;-50
2021/05/16 06:03:52;;;;;;;1.00;0.90;;;12.20;99.90;;;;;;5053482;28;20855;-52
2021/05/16 06:06:17;;;;;;;1.20;1.00;;;12.70;99.90;;;;;;5058947;28;20221;-51
2021/05/16 06:08:43;;;;;;;0.80;0.70;;;12.20;99.90;;;;;;5060119;28;20682;-51
2021/05/16 06:11:08;;;;;;;1.23;1.10;;;12.60;99.90;;;;;;5059108;28;20279;-52
2021/05/16 06:13:34;;;;;;;1.87;1.27;;;13.00;99.90;;;;;;5062943;28;20211;-51
2021/05/16 06:16:00;;;;;;;1.40;0.93;;;13.00;99.90;;;;;;5065906;28;20207;-51
2021/05/16 06:18:26;;;;;;;0.70;0.70;;;12.70;99.90;;;;;;5063573;28;20434;-52
2021/05/16 06:20:52;;;;;;;1.10;0.80;;;13.10;99.90;;;;;;5062867;28;20258;-50
2021/05/16 06:23:18;;;;;;;0.80;0.70;;;13.10;99.90;;;;;;5065128;28;20203;-51
2021/05/16 06:25:45;;;;;;;2.08;1.20;;;13.40;99.90;;;;;;5069440;28;20212;-51
2021/05/16 06:28:11;;;;;;;3.33;0.90;;;13.50;99.90;;;;;;5068100;28;20187;-51
2021/05/16 06:30:37;;;;;;;1.30;1.00;;;13.30;99.90;;;;;;5064549;28;20551;-51
2021/05/16 06:33:02;;;;;;;1.37;0.80;;;13.60;99.90;;;;;;5067372;28;20565;-51
2021/05/16 06:35:28;;;;;;;2.30;0.80;;;13.80;99.90;;;;;;5068002;28;20225;-52
2021/05/16 06:37:53;;;;;;;1.30;1.00;;;14.20;99.90;;;;;;5052213;28;20572;-52
2021/05/16 06:40:20;;;;;;;1.47;0.90;;;14.10;99.90;;;;;;5072162;28;20581;-51
2021/05/16 06:42:46;;;;;;;1.42;1.10;;;14.40;99.90;;;;;;5069165;28;20272;-52
2021/05/16 06:45:13;;;;;;;1.63;0.80;;;14.70;99.90;;;;;;5068282;28;20284;-52
2021/05/16 06:47:39;;;;;;;2.15;1.05;;;15.00;99.90;;;;;;5068677;28;20185;-52
2021/05/16 06:50:07;;;;;;;1.80;0.80;;;15.40;99.00;;;;;;5068115;28;20539;-51
2021/05/16 06:52:32;;;;;;;2.42;1.50;;;16.10;98.60;;;;;;5054342;28;20435;-52
2021/05/16 06:54:58;;;;;;;2.53;0.90;;;16.30;96.80;;;;;;5065742;28;20539;-51
2021/05/16 06:57:24;;;;;;;3.13;0.87;;;17.30;95.70;;;;;;5068572;28;20181;-52
2021/05/16 06:59:49;;;;;;;2.20;1.00;;;18.50;92.50;;;;;;5062450;28;20605;-52
2021/05/16 07:02:15;;;;;;;1.37;0.80;;;19.30;90.90;;;;;;5063255;28;20180;-52
2021/05/16 07:04:43;;;;;;;2.10;0.83;;;20.10;86.80;;;;;;5067040;28;20205;-52
2021/05/16 07:07:09;;;;;;;1.65;0.80;;;20.00;83.80;;;;;;5068003;28;20177;-52
2021/05/16 07:09:35;;;;;;;1.20;0.80;;;19.70;85.40;;;;;;5069090;28;20180;-52
2021/05/16 07:12:00;;;;;;;1.00;0.90;;;19.30;84.90;;;;;;5066344;28;20208;-52
2021/05/16 07:14:26;;;;;;;1.00;0.90;;;19.10;85.70;;;;;;5066981;28;20686;-52
2021/05/16 07:16:52;;;;;;;1.73;0.93;;;19.00;86.30;;;;;;5068090;28;20216;-51
2021/05/16 07:19:17;;;;;;;0.90;0.73;;;18.90;85.80;;;;;;5067142;28;20726;-51
2021/05/16 07:21:43;;;;;;;2.80;0.83;;;19.00;84.50;;;;;;5066526;28;20656;-52
2021/05/16 07:24:09;;;;;;;1.70;0.80;;;18.60;86.00;;;;;;5067697;28;20462;-51
2021/05/16 07:26:35;;;;;;;1.30;0.90;;;18.20;86.70;;;;;;5067225;28;20207;-52
2021/05/16 07:29:01;;;;;;;1.13;0.83;;;17.60;89.40;;;;;;5068082;28;20442;-51
2021/05/16 07:31:26;;;;;;;1.53;0.90;;;17.40;90.50;;;;;;5068241;28;20447;-51
2021/05/16 07:33:52;;;;;;;0.83;0.77;;;17.00;91.20;;;;;;5068010;28;20669;-51
2021/05/16 07:36:18;;;;;;;0.93;0.80;;;16.70;92.60;;;;;;5066583;28;20599;-52
2021/05/16 07:38:45;;;;;;;1.50;1.40;;;16.50;93.00;;;;;;5067741;28;20200;-52
2021/05/16 07:41:11;;;;;;;2.05;1.00;;;16.30;92.10;;;;;;5066130;28;20184;-52
2021/05/16 07:43:37;;;;;;;2.63;0.85;;;16.40;92.50;;;;;;5073899;28;20198;-52
2021/05/16 07:46:04;;;;;;;1.90;0.97;;;16.80;93.20;;;;;;5066785;28;20696;-52
2021/05/16 07:48:30;;;;;;;1.98;0.90;;;16.70;92.60;;;;;;5070237;28;20445;-51
2021/05/16 07:51:01;;;;;;;1.10;0.70;;;16.90;92.30;;;;;;5067014;28;20188;-52
2021/05/16 07:53:28;;;;;;;1.38;0.93;;;17.90;90.00;;;;;;5068470;28;20207;-52
2021/05/16 07:55:54;;;;;;;1.20;0.90;;;19.70;86.20;;;;;;5065772;28;20227;-53
2021/05/16 07:58:20;;;;;;;2.00;0.93;;;21.00;79.20;;;;;;5060693;28;20647;-52
2021/05/16 08:00:46;;;;;;;2.05;1.15;;;20.00;78.50;;;;;;5062194;28;20216;-52
2021/05/16 08:03:11;;;;;;;2.83;0.90;;;20.10;76.50;;;;;;5059731;28;20212;-56
2021/05/16 08:05:37;;;;;;;3.27;1.00;;;18.70;79.50;;;;;;5061166;28;20552;-55
2021/05/16 08:08:03;;;;;;;1.87;1.33;;;18.10;82.30;;;;;;5062791;28;20223;-57
2021/05/16 08:10:29;;;;;;;1.50;0.90;;;17.20;87.00;;;;;;5059761;28;20435;-56
2021/05/16 08:12:54;;;;;;;3.77;1.17;;;16.70;91.90;;;;;;5059223;28;20427;-52
2021/05/16 08:15:22;;;;;;;1.30;1.07;;;16.00;93.40;;;;;;5060134;28;20490;-53
2021/05/16 08:17:47;;;;;;;1.10;0.90;;;15.40;95.70;;;;;;5059612;28;20188;-54
2021/05/16 08:20:14;;;;;;;4.53;1.17;;;15.00;97.30;;;;;;5063380;28;20207;-52
2021/05/16 08:22:40;;;;;;;3.40;1.10;;;14.40;98.10;;;;;;5062259;28;20185;-51
2021/05/16 08:25:09;;;;;;;3.57;1.13;;;14.50;99.90;;;;;;5057734;28;20235;-52
2021/05/16 08:27:35;;;;;;;1.48;1.10;;;14.50;99.90;;;;;;5061781;28;20440;-53
2021/05/16 08:30:01;;;;;;;1.97;1.23;;;14.40;99.90;;;;;;5059540;28;20197;-53
2021/05/16 08:32:27;;;;;;;1.65;1.00;;;14.80;99.90;;;;;;5059450;28;20220;-53
2021/05/16 08:34:56;;;;;;;1.40;0.90;;;15.90;99.90;;;;;;5061233;28;20244;-54
2021/05/16 08:37:21;;;;;;;1.23;0.90;;;18.10;95.90;;;;;;5062182;28;20181;-52
2021/05/16 08:39:47;;;;;;;1.77;1.00;;;19.60;93.10;;;;;;5061260;28;20257;-53
2021/05/16 08:42:15;;;;;;;1.20;0.80;;;21.00;87.70;;;;;;5061192;28;20296;-52
2021/05/16 08:44:41;;;;;;;3.30;1.60;;;21.20;85.20;;;;;;5061633;28;20196;-53
2021/05/16 08:47:07;;;;;;;1.73;0.83;;;21.80;83.30;;;;;;5061220;28;20838;-53
2021/05/16 08:49:33;;;;;;;2.30;1.00;;;22.40;77.50;;;;;;5063529;28;20329;-51
2021/05/16 08:51:58;;;;;;;3.40;1.23;;;21.50;79.50;;;;;;5060732;28;20181;-53
2021/05/16 08:54:24;;;;;;;2.23;1.50;;;20.70;80.90;;;;;;5055449;28;20216;-54
2021/05/16 08:56:52;;;;;;;1.90;1.20;;;21.70;80.50;;;;;;5057513;28;20196;-53
2021/05/16 08:59:20;;;;;;;1.70;1.10;;;23.00;77.40;;;;;;5057068;28;20542;-54
2021/05/16 09:01:51;;;;;;;1.20;0.90;;;23.60;74.50;;;;;;5064144;28;20528;-54
2021/05/16 09:04:23;;;;;;;1.50;1.00;;;24.00;72.70;;;;;;5058095;28;20451;-54
2021/05/16 09:06:53;;;;;;;2.57;1.20;;;23.70;71.00;;;;;;5064395;28;20431;-56
2021/05/16 09:09:31;;;;;;;2.90;1.10;;;23.00;74.20;;;;;;5060019;28;20523;-55
2021/05/16 09:11:58;;;;;;;1.73;1.20;;;24.00;68.70;;;;;;5059603;28;20486;-55
2021/05/16 09:14:39;;;;;;;2.70;1.23;;;24.70;63.60;;;;;;5060614;28;20849;-56
2021/05/16 09:17:50;;;;;;;2.03;1.10;;;24.60;63.80;;;;;;5062182;28;20477;-55
2021/05/16 09:20:23;;;;;;;3.37;1.23;;;24.30;62.60;;;;;;5056381;28;20528;-53
2021/05/16 09:22:49;;;;;;;4.40;1.27;;;23.80;61.40;;;;;;5065263;28;20432;-53
2021/05/16 09:25:26;;;;;;;1.20;0.90;;;23.50;59.80;;;;;;5060834;28;20590;-54
2021/05/16 09:27:54;;;;;;;1.47;1.10;;;23.30;62.40;;;;;;5058053;28;20181;-54
2021/05/16 09:30:20;;;;;;;1.40;1.03;;;23.90;61.80;;;;;;5059942;28;20526;-54
2021/05/16 09:32:58;;;;;;;2.27;1.43;;;25.50;59.00;;;;;;5060200;28;20588;-53
2021/05/16 09:35:27;;;;;;;4.13;1.20;;;26.60;56.90;;;;;;5062455;28;20507;-53
2021/05/16 09:38:01;;;;;;;3.60;1.33;;;26.70;54.70;;;;;;5061017;28;20846;-53
2021/05/16 09:40:38;;;;;;;1.73;1.10;;;26.20;52.50;;;;;;5063194;28;20775;-52
2021/05/16 09:43:15;;;;;;;2.70;1.10;;;24.90;54.90;;;;;;5063616;28;20450;-51
2021/05/16 09:45:53;;;;;;;3.00;1.30;;;24.20;54.50;;;;;;5062739;28;20522;-52
2021/05/16 09:48:20;;;;;;;2.87;1.90;;;24.00;53.60;;;;;;5062248;28;20520;-53
2021/05/16 09:51:26;;;;;;;2.60;2.23;;;24.10;53.90;;;;;;5063050;28;20449;-54
2021/05/16 09:53:57;;;;;;;2.93;1.50;;;24.90;52.20;;;;;;5045972;28;20454;-52
2021/05/16 09:56:27;;;;;;;2.70;1.37;;;25.50;50.80;;;;;;5060279;28;20471;-52
2021/05/16 09:58:55;;;;;;;2.03;1.00;;;26.10;50.30;;;;;;5061868;28;20456;-52
2021/05/16 10:01:22;;;;;;;3.03;1.37;;;25.20;50.30;;;;;;5065213;28;20439;-53
2021/05/16 10:03:49;;;;;;;1.83;1.30;;;24.80;51.50;;;;;;5063416;28;20482;-52
2021/05/16 10:06:20;;;;;;;1.97;1.10;;;24.00;51.70;;;;;;5063439;28;20988;-54
2021/05/16 10:08:49;;;;;;;3.33;1.20;;;23.60;51.70;;;;;;5064568;28;20873;-51
2021/05/16 10:11:19;;;;;;;3.10;1.30;;;24.20;51.00;;;;;;5062399;28;20897;-53
2021/05/16 10:14:01;;;;;;;2.30;1.10;;;25.20;51.00;;;;;;5064066;28;21050;-53
2021/05/16 10:16:31;;;;;;;3.13;1.03;;;25.90;48.60;;;;;;5063604;28;20541;-52
2021/05/16 10:18:57;;;;;;;2.40;1.37;;;26.10;47.30;;;;;;5060674;28;20477;-54
2021/05/16 10:21:24;;;;;;;2.10;1.10;;;25.40;47.40;;;;;;5061891;28;20833;-54
2021/05/16 10:24:12;;;;;;;4.40;1.57;;;24.70;48.80;;;;;;5061210;28;20977;-54
2021/05/16 10:26:40;;;;;;;2.27;1.20;;;24.60;49.90;;;;;;5065080;28;20510;-55
2021/05/16 10:29:11;;;;;;;2.50;1.20;;;23.90;49.90;;;;;;5065178;28;20435;-56
2021/05/16 10:31:42;;;;;;;3.60;1.07;;;23.30;50.60;;;;;;5061774;28;21223;-55
2021/05/16 10:34:27;;;;;;;1.60;1.30;;;23.00;51.90;;;;;;5061581;28;20460;-56
2021/05/16 10:36:53;;;;;;;2.60;1.10;;;22.90;51.00;;;;;;5059988;28;20438;-55
2021/05/16 10:39:38;;;;;;;2.40;1.50;;;22.70;50.60;;;;;;5060816;28;20459;-55
2021/05/16 10:42:30;;;;;;;1.98;1.13;;;21.90;52.50;;;;;;5065195;28;20473;-56
2021/05/16 10:45:04;;;;;;;2.70;1.27;;;21.30;52.60;;;;;;5070190;28;20251;-55
2021/05/16 10:50:09;;;;;;;1.95;1.30;;;21.20;54.60;;;;;;5064436;28;20235;-56
2021/05/16 10:52:35;;;;;;;2.70;1.05;;;20.60;55.10;;;;;;5063559;28;20242;-56
2021/05/16 10:55:02;;;;;;;1.43;1.30;;;20.30;55.90;;;;;;5064091;28;20212;-55
2021/05/16 10:57:38;;;;;;;2.35;1.45;;;20.00;56.70;;;;;;5061109;28;20181;-54
2021/05/16 11:00:26;;;;;;;4.47;1.73;;;20.80;56.80;;;;;;5062681;28;20201;-55
2021/05/16 11:03:07;;;;;;;1.92;1.27;;;22.30;54.10;;;;;;5062578;28;20185;-55
2021/05/16 11:08:16;;;;;;;1.30;1.13;;;23.00;51.20;;;;;;5063983;28;20785;-53
2021/05/16 11:10:51;;;;;;;2.60;1.40;;;23.10;51.10;;;;;;5062514;28;20479;-54
2021/05/16 11:13:31;;;;;;;3.47;1.10;;;24.00;50.80;;;;;;5045455;28;20987;-55
2021/05/16 11:16:07;;;;;;;3.03;1.60;;;25.20;48.40;;;;;;5048382;28;20477;-54
2021/05/16 11:18:34;;;;;;;1.37;1.00;;;25.90;48.00;;;;;;5064601;28;20954;-55
2021/05/16 11:21:06;;;;;;;2.10;0.90;;;25.40;46.70;;;;;;5062439;28;20947;-54
2021/05/16 11:23:34;;;;;;;2.43;1.13;;;24.80;48.40;;;;;;5064141;28;21041;-55
2021/05/16 11:26:08;;;;;;;1.40;1.00;;;25.10;48.00;;;;;;5062926;28;20438;-55
2021/05/16 11:28:39;;;;;;;2.57;1.00;;;25.40;47.10;;;;;;5062724;28;20439;-54
2021/05/16 11:31:12;;;;;;;3.10;1.23;;;24.90;47.60;;;;;;5059130;28;20846;-53
2021/05/16 11:33:40;;;;;;;1.43;1.00;;;25.20;47.70;;;;;;5061406;28;20462;-53
2021/05/16 11:36:08;;;;;;;1.73;0.80;;;25.20;46.50;;;;;;5060831;28;20498;-55
2021/05/16 11:38:36;;;;;;;1.63;0.97;;;25.20;45.60;;;;;;5061021;28;20465;-54
2021/05/16 11:41:03;;;;;;;1.90;1.57;;;24.90;45.10;;;;;;5061044;28;20463;-54
2021/05/16 11:43:30;;;;;;;1.73;0.70;;;24.50;45.00;;;;;;5061364;28;20493;-54
2021/05/16 11:45:57;;;;;;;1.90;1.20;;;24.40;45.60;;;;;;5063321;28;20849;-55
2021/05/16 11:48:36;;;;;;;1.93;1.00;;;24.40;46.70;;;;;;5059524;28;20462;-54
2021/05/16 11:51:15;;;;;;;1.77;0.93;;;23.90;45.80;;;;;;5060868;28;20974;-54
2021/05/16 11:53:43;;;;;;;1.53;0.90;;;23.20;46.40;;;;;;5064183;28;20971;-54
2021/05/16 11:56:16;;;;;;;1.57;1.00;;;23.10;47.10;;;;;;5047249;28;20457;-54
2021/05/16 11:58:50;;;;;;;2.60;1.03;;;22.60;47.50;;;;;;5056441;28;20457;-54
2021/05/16 12:01:16;;;;;;;2.45;1.55;;;22.20;48.90;;;;;;5052667;28;20587;-54
2021/05/16 12:04:00;;;;;;;3.53;1.00;;;22.30;50.50;;;;;;5059074;28;20205;-55
2021/05/16 12:06:28;;;;;;;1.15;0.80;;;22.20;49.60;;;;;;5060115;28;20866;-54
2021/05/16 12:09:09;;;;;;;1.83;0.82;;;21.90;50.20;;;;;;5061069;28;20185;-54
2021/05/16 12:11:35;;;;;;;2.97;1.33;;;21.50;51.60;;;;;;5059805;28;20187;-55
2021/05/16 12:14:14;;;;;;;2.53;1.60;;;21.50;52.20;;;;;;5061695;28;20200;-54
2021/05/16 12:16:41;;;;;;;1.33;1.05;;;21.10;52.70;;;;;;5060281;28;20177;-54
2021/05/16 12:19:07;;;;;;;3.05;1.10;;;21.30;53.40;;;;;;5060712;28;20212;-54
2021/05/16 12:21:37;;;;;;;4.05;1.48;;;21.30;53.30;;;;;;5060110;28;20268;-53
2021/05/16 12:24:06;;;;;;;3.20;1.17;;;21.20;54.20;;;;;;5059096;28;20374;-55
2021/05/16 12:26:34;;;;;;;1.80;1.10;;;21.10;52.40;;;;;;5059570;28;20605;-54
2021/05/16 12:29:00;;;;;;;1.33;0.93;;;20.90;52.40;;;;;;5062122;28;20234;-54
2021/05/16 12:31:28;;;;;;;2.50;1.10;;;20.90;52.60;;;;;;5057202;28;20540;-52
2021/05/16 12:33:58;;;;;;;3.08;0.95;;;20.80;53.20;;;;;;5061429;28;20207;-55
2021/05/16 12:36:24;;;;;;;2.13;1.10;;;20.70;52.90;;;;;;5061904;28;20185;-56
2021/05/16 12:38:53;;;;;;;2.00;1.30;;;20.60;53.50;;;;;;5060940;28;20211;-53
2021/05/16 12:41:25;;;;;;;2.22;1.20;;;20.70;53.50;;;;;;5062467;28;20280;-55
2021/05/16 12:44:24;;;;;;;1.27;0.90;;;20.80;54.00;;;;;;5060324;28;20209;-54
2021/05/16 12:46:51;;;;;;;1.70;1.50;;;20.70;52.80;;;;;;5041719;28;20189;-56
2021/05/16 12:49:25;;;;;;;1.70;1.10;;;20.80;52.80;;;;;;5060648;28;20189;-53
2021/05/16 12:51:57;;;;;;;1.55;1.25;;;20.60;54.00;;;;;;5060636;28;20660;-55
2021/05/16 12:54:26;;;;;;;3.40;1.23;;;20.80;54.30;;;;;;5062657;28;20217;-59
2021/05/16 12:57:07;;;;;;;2.35;1.33;;;21.30;54.10;;;;;;5058975;28;20236;-56